Time;durP1;ratioP1;P1;durP2;ratioP2;P2;SDS_P1;SDS_P2;PMS_P1;PMS_P2;Temp;Humidity;BMP_temperature;BMP_pressure;BME280_temperature;BME280_humidity;BME280_pressure;Samples;Min_cycle;Max_cycle;Signal;HPM_P1;HPM_P2
2021/12/21 00:00:13;;;;;;;37.10;17.27;;;;;;;;;;5046477;28;20456;-80
2021/12/21 00:02:43;;;;;;;43.28;18.27;;;;;;;;;;5047889;28;20021;-77
2021/12/21 00:05:16;;;;;;;40.10;19.27;;;;;;;;;;5044587;28;20029;-83
2021/12/21 00:07:42;;;;;;;36.70;17.92;;;;;;;;;;5038695;28;20112;-80
2021/12/21 00:10:09;;;;;;;36.10;18.35;;;;;;;;;;5037260;28;20026;-81
2021/12/21 00:12:36;;;;;;;32.03;15.75;;;2.60;99.90;;;;;;5038419;28;20037;-80
2021/12/21 00:15:06;;;;;;;38.22;16.75;;;0.70;99.90;;;;;;5039637;28;20574;-82
2021/12/21 00:17:48;;;;;;;30.70;15.27;;;0.70;99.90;;;;;;5037661;28;20032;-81
2021/12/21 00:23:18;;;;;;;38.05;14.95;;;0.60;99.90;;;;;;5038397;28;20083;-83
2021/12/21 00:25:37;;;;;;;30.88;14.48;;;0.60;99.90;;;;;;5038644;28;20132;-82
2021/12/21 00:28:03;;;;;;;27.65;14.25;;;0.60;99.90;;;;;;5037211;28;20065;-81
2021/12/21 00:30:28;;;;;;;31.73;13.75;;;0.60;99.90;;;;;;5042215;28;20425;-82
2021/12/21 00:32:54;;;;;;;30.40;14.23;;;0.50;99.90;;;;;;5043175;28;20037;-80
2021/12/21 00:35:20;;;;;;;34.78;15.45;;;0.50;99.90;;;;;;5043678;28;20053;-80
2021/12/21 00:37:46;;;;;;;32.28;14.85;;;0.50;99.90;;;;;;5046319;28;20045;-83
2021/12/21 00:40:13;;;;;;;33.58;15.95;;;0.50;99.90;;;;;;5047163;28;20030;-81
2021/12/21 00:42:39;;;;;;;36.47;15.95;;;0.50;99.90;;;;;;5045446;28;20021;-79
2021/12/21 00:45:05;;;;;;;39.03;14.35;;;0.50;99.90;;;;;;5042971;28;20028;-79
2021/12/21 00:47:33;;;;;;;32.28;13.70;;;0.50;99.90;;;;;;5041436;28;20018;-82
2021/12/21 00:50:01;;;;;;;31.17;13.85;;;0.50;99.90;;;;;;5041680;28;20095;-82
2021/12/21 00:52:28;;;;;;;32.67;13.80;;;;;;;;;;5050099;28;20076;-78
2021/12/21 00:54:54;;;;;;;29.08;13.90;;;;;;;;;;5059822;28;20009;-79
2021/12/21 00:57:20;;;;;;;34.70;13.82;;;;;;;;;;5049322;28;20037;-82
2021/12/21 00:59:46;;;;;;;28.85;13.60;;;;;;;;;;5041662;28;20243;-84
2021/12/21 01:02:12;;;;;;;31.65;14.70;;;;;;;;;;5042266;28;20026;-82
2021/12/21 01:04:43;;;;;;;30.92;13.80;;;;;;;;;;5041133;28;20025;-83
2021/12/21 01:12:07;;;;;;;28.55;13.95;;;;;;;;;;5042266;28;20030;-79
2021/12/21 01:19:36;;;;;;;32.97;15.23;;;;;;;;;;5052847;28;20494;-77
2021/12/21 01:22:17;;;;;;;;;;;;;;;;;;5052157;28;20068;-78
2021/12/21 01:25:01;;;;;;;30.33;13.68;;;;;;;;;;5057435;28;19989;-82
2021/12/21 01:30:46;;;;;;;31.02;13.73;;;;;;;;;;5011153;28;20085;-78
2021/12/21 01:35:50;;;;;;;24.58;12.88;;;;;;;;;;5057304;28;20026;-80
2021/12/21 01:41:25;;;;;;;33.30;14.30;;;;;;;;;;5052002;28;20044;-81
2021/12/21 01:43:41;;;;;;;27.10;13.02;;;;;;;;;;5043254;28;20068;-82
2021/12/21 01:51:37;;;;;;;26.25;11.88;;;;;;;;;;5041734;28;20056;-82
2021/12/21 01:54:03;;;;;;;29.00;11.93;;;;;;;;;;5041018;28;20018;-81
2021/12/21 01:56:29;;;;;;;25.70;11.55;;;;;;;;;;5039502;28;20024;-82
2021/12/21 01:58:55;;;;;;;32.50;12.18;;;;;;;;;;5040747;28;20029;-83
2021/12/21 02:01:24;;;;;;;34.15;12.57;;;;;;;;;;5042359;28;20026;-82
2021/12/21 02:03:51;;;;;;;30.70;12.60;;;;;;;;;;5043094;28;20065;-78
2021/12/21 02:06:18;;;;;;;27.42;12.63;;;;;;;;;;5039548;28;20084;-79
2021/12/21 02:08:44;;;;;;;29.05;12.38;;;;;;;;;;5043345;28;20029;-82
2021/12/21 02:11:10;;;;;;;32.78;12.70;;;;;;;;;;5039090;28;20108;-83
2021/12/21 02:13:37;;;;;;;31.20;12.35;;;;;;;;;;5049389;28;20025;-79
2021/12/21 02:16:05;;;;;;;25.63;11.93;;;;;;;;;;5056067;28;20018;-77
2021/12/21 02:18:37;;;;;;;25.65;12.10;;;;;;;;;;5056233;28;20048;-80
2021/12/21 02:21:20;;;;;;;30.73;12.52;;;;;;;;;;5046042;28;20052;-76
2021/12/21 02:23:48;;;;;;;28.20;13.35;;;;;;;;;;5057946;28;20041;-76
2021/12/21 02:26:50;;;;;;;24.38;11.68;;;;;;;;;;5057204;28;20022;-79
2021/12/21 02:31:39;;;;;;;22.23;10.77;;;;;;;;;;5058127;28;20148;-76
2021/12/21 02:34:07;;;;;;;29.33;11.90;;;;;;;;;;5058257;28;20026;-76
2021/12/21 02:36:33;;;;;;;22.90;11.23;;;;;;;;;;5048110;28;20021;-80
2021/12/21 02:39:00;;;;;;;25.05;11.85;;;;;;;;;;5042405;28;20519;-81
2021/12/21 02:41:26;;;;;;;27.05;11.75;;;;;;;;;;5041695;28;20100;-82
2021/12/21 02:43:54;;;;;;;19.40;10.20;;;;;;;;;;5040286;28;20033;-81
2021/12/21 02:46:20;;;;;;;22.88;10.65;;;;;;;;;;5039363;28;20018;-83
2021/12/21 02:48:46;;;;;;;30.88;11.32;;;;;;;;;;5039417;28;20029;-83
2021/12/21 02:51:12;;;;;;;36.72;12.95;;;;;;;;;;5039879;28;20137;-81
2021/12/21 02:53:39;;;;;;;24.10;10.73;;;;;;;;;;5036700;28;20057;-81
2021/12/21 02:56:05;;;;;;;32.05;12.45;;;;;;;;;;5032445;28;20494;-82
2021/12/21 02:58:31;;;;;;;26.05;11.65;;;;;;;;;;5034997;28;20040;-81
2021/12/21 03:00:57;;;;;;;21.83;10.88;;;;;;;;;;5036702;28;20038;-81
2021/12/21 03:03:24;;;;;;;32.33;12.57;;;;;;;;;;5049912;28;20018;-77
2021/12/21 03:05:54;;;;;;;30.38;12.93;;;;;;;;;;5042257;28;20030;-79
2021/12/21 03:08:39;;;;;;;29.35;12.40;;;;;;;;;;5038505;28;20024;-80
2021/12/21 03:16:17;;;;;;;26.80;11.10;;;;;;;;;;5038400;28;20064;-78
2021/12/21 03:18:44;;;;;;;33.30;11.75;;;;;;;;;;5037700;28;20391;-80
2021/12/21 03:21:10;;;;;;;28.35;11.35;;;;;;;;;;5036950;28;20033;-79
2021/12/21 03:23:37;;;;;;;35.17;11.52;;;;;;;;;;5048644;28;20055;-77
2021/12/21 03:26:03;;;;;;;24.83;11.80;;;;;;;;;;5056929;28;20024;-79
2021/12/21 03:28:30;;;;;;;25.95;11.57;;;;;;;;;;5057405;28;20017;-76
2021/12/21 03:30:56;;;;;;;24.27;10.70;;;;;;;;;;5056158;28;20037;-78
2021/12/21 03:33:22;;;;;;;21.35;10.68;;;;;;;;;;5053234;28;20030;-77
2021/12/21 03:35:48;;;;;;;34.70;11.55;;;;;;;;;;5053460;28;20030;-76
2021/12/21 03:38:15;;;;;;;28.98;12.07;;;;;;;;;;5055711;28;20010;-79
2021/12/21 03:40:41;;;;;;;29.77;11.23;;;;;;;;;;5055351;28;20021;-78
2021/12/21 03:43:07;;;;;;;28.40;10.80;;;;;;;;;;5055959;28;20056;-77
2021/12/21 03:45:38;;;;;;;30.30;12.68;;;;;;;;;;5052268;28;20427;-76
2021/12/21 03:48:05;;;;;;;28.15;11.07;;;;;;;;;;5047921;28;20026;-79
2021/12/21 03:50:31;;;;;;;34.20;12.02;;;;;;;;;;5050907;28;20025;-77
2021/12/21 03:52:57;;;;;;;26.33;11.70;;;;;;;;;;5049998;28;20034;-78
2021/12/21 03:55:23;;;;;;;24.85;11.15;;;;;;;;;;5048489;28;20029;-78
2021/12/21 03:57:49;;;;;;;23.98;11.48;;;;;;;;;;5049341;28;20022;-80
2021/12/21 04:00:16;;;;;;;29.80;11.85;;;;;;;;;;5050818;28;20026;-77
2021/12/21 04:02:42;;;;;;;26.38;12.32;;;;;;;;;;5055103;28;20017;-77
2021/12/21 04:05:08;;;;;;;34.60;16.25;;;;;;;;;;5056954;28;20021;-74
2021/12/21 04:07:35;;;;;;;34.78;15.88;;;;;;;;;;5056333;28;20013;-76
2021/12/21 04:10:01;;;;;;;30.98;12.77;;;;;;;;;;5058119;28;20077;-76
2021/12/21 04:12:27;;;;;;;21.92;11.10;;;;;;;;;;5060812;28;20033;-75
2021/12/21 04:14:55;;;;;;;27.40;11.65;;;;;;;;;;5060257;28;20055;-75
2021/12/21 04:17:23;;;;;;;27.88;10.65;;;;;;;;;;5058583;28;20037;-75
2021/12/21 04:19:50;;;;;;;23.38;10.80;;;;;;;;;;5060072;28;20161;-77
2021/12/21 04:22:16;;;;;;;27.50;10.80;;;;;;;;;;5044816;28;20036;-79
2021/12/21 04:24:42;;;;;;;24.55;10.13;;;;;;;;;;5041537;28;20028;-79
2021/12/21 04:27:08;;;;;;;27.75;10.30;;;;;;;;;;5038736;28;20037;-78
2021/12/21 04:29:34;;;;;;;24.25;10.90;;;;;;;;;;5036346;28;20117;-77
2021/12/21 04:32:01;;;;;;;21.60;10.30;;;;;;;;;;5041681;28;20033;-78
2021/12/21 04:34:27;;;;;;;28.70;10.77;;;;;;;;;;5035091;28;20425;-76
2021/12/21 04:36:53;;;;;;;25.52;10.23;;;;;;;;;;5035564;28;20022;-77
2021/12/21 04:39:36;;;;;;;22.50;10.90;;;;;;;;;;5036636;28;20033;-77
2021/12/21 04:42:03;;;;;;;34.78;11.68;;;;;;;;;;5036416;28;20497;-77
2021/12/21 04:44:29;;;;;;;25.52;10.65;;;;;;;;;;5035813;28;20026;-78
2021/12/21 04:46:55;;;;;;;26.60;11.35;;;;;;;;;;5036010;28;20056;-77
2021/12/21 04:49:21;;;;;;;25.58;11.95;;;;;;;;;;5034179;28;20112;-76
2021/12/21 04:51:47;;;;;;;25.30;11.10;;;;;;;;;;5034809;28;20175;-78
2021/12/21 04:54:12;;;;;;;28.48;10.40;;;;;;;;;;5037278;28;20501;-77
2021/12/21 04:56:38;;;;;;;25.80;12.05;;;;;;;;;;5034810;28;20108;-77
2021/12/21 04:59:05;;;;;;;23.45;10.52;;;;;;;;;;5035485;28;20402;-78
2021/12/21 05:01:30;;;;;;;29.60;12.45;;;;;;;;;;5035460;28;20021;-76
2021/12/21 05:03:56;;;;;;;23.67;10.70;;;;;;;;;;5037698;28;20045;-78
2021/12/21 05:06:22;;;;;;;25.50;11.48;;;;;;;;;;5035092;28;20032;-78
2021/12/21 05:09:03;;;;;;;26.25;11.98;;;;;;;;;;5035157;28;20036;-79
2021/12/21 05:11:33;;;;;;;22.70;9.98;;;;;;;;;;5035954;28;20060;-79
2021/12/21 05:13:59;;;;;;;27.00;10.68;;;;;;;;;;5037193;28;20021;-78
2021/12/21 05:16:25;;;;;;;29.90;12.15;;;;;;;;;;5037830;28;20085;-78
2021/12/21 05:18:51;;;;;;;26.27;11.32;;;;;;;;;;5036831;28;20067;-77
2021/12/21 05:21:17;;;;;;;35.03;13.18;;;;;;;;;;5036951;28;20179;-78
2021/12/21 05:23:43;;;;;;;41.78;14.40;;;;;;;;;;5039434;28;20033;-77
2021/12/21 05:26:09;;;;;;;25.55;12.15;;;;;;;;;;5041133;28;20398;-78
2021/12/21 05:28:35;;;;;;;26.38;11.15;;;;;;;;;;5038292;28;20021;-78
2021/12/21 05:31:01;;;;;;;33.72;11.73;;;;;;;;;;5034973;28;20087;-77
2021/12/21 05:33:28;;;;;;;25.50;11.43;;;;;;;;;;5036558;28;20028;-78
2021/12/21 05:35:55;;;;;;;27.73;11.05;;;;;;;;;;5038437;28;20108;-77
2021/12/21 05:38:29;;;;;;;30.73;12.10;;;;;;;;;;5043863;28;20021;-79
2021/12/21 05:40:58;;;;;;;27.42;11.60;;;;;;;;;;5046181;28;20018;-78
2021/12/21 05:43:24;;;;;;;21.27;10.70;;;;;;;;;;5042894;28;20113;-77
2021/12/21 05:45:50;;;;;;;26.63;11.40;;;;;;;;;;5041141;28;20041;-77
2021/12/21 05:48:16;;;;;;;27.92;11.38;;;;;;;;;;5035269;28;20030;-77
2021/12/21 05:50:41;;;;;;;27.60;12.20;;;;;;;;;;5037838;28;20478;-77
2021/12/21 05:53:07;;;;;;;31.75;13.05;;;;;;;;;;5037512;28;20432;-77
2021/12/21 05:55:33;;;;;;;29.70;11.13;;;;;;;;;;5035368;28;20093;-76
2021/12/21 05:58:00;;;;;;;22.60;10.38;;;;;;;;;;5034638;28;20021;-77
2021/12/21 06:00:27;;;;;;;27.95;10.02;;;;;;;;;;5034861;28;20044;-78
2021/12/21 06:02:53;;;;;;;30.77;12.27;;;;;;;;;;5035491;28;20024;-78
2021/12/21 06:05:19;;;;;;;32.83;13.13;;;;;;;;;;5035938;28;20041;-79
2021/12/21 06:07:48;;;;;;;28.20;11.32;;;;;;;;;;5033759;28;20061;-78
2021/12/21 06:10:20;;;;;;;32.25;12.30;;;;;;;;;;5035879;28;20021;-78
2021/12/21 06:15:44;;;;;;;25.15;10.88;;;;;;;;;;5040295;28;20025;-78
2021/12/21 06:26:11;;;;;;;25.55;11.68;;;;;;;;;;5038913;28;20132;-78
2021/12/21 06:28:38;;;;;;;27.15;11.63;;;;;;;;;;5045947;28;20021;-78
2021/12/21 06:31:04;;;;;;;29.83;11.45;;;;;;;;;;5042987;28;20083;-78
2021/12/21 06:33:31;;;;;;;29.92;15.25;;;;;;;;;;5048397;28;20177;-79
2021/12/21 06:35:57;;;;;;;30.67;12.38;;;;;;;;;;5051914;28;20041;-79
2021/12/21 06:38:23;;;;;;;29.05;12.20;;;;;;;;;;5046767;28;20029;-77
2021/12/21 06:40:49;;;;;;;26.75;12.25;;;;;;;;;;5044991;28;20022;-78
2021/12/21 06:43:16;;;;;;;30.30;13.27;;;;;;;;;;5044019;28;20490;-77
2021/12/21 06:53:40;;;;;;;32.22;13.82;;;;;;;;;;5039481;28;20487;-77
2021/12/21 06:56:06;;;;;;;40.80;15.77;;;;;;;;;;5036903;28;20017;-77
2021/12/21 06:58:33;;;;;;;40.10;17.98;;;;;;;;;;5040370;28;20029;-79
2021/12/21 07:00:59;;;;;;;33.67;14.98;;;;;;;;;;5038990;28;20021;-77
2021/12/21 07:03:25;;;;;;;35.38;14.90;;;;;;;;;;5042125;28;20052;-77
2021/12/21 07:05:52;;;;;;;33.53;14.13;;;;;;;;;;5042460;28;20497;-79
2021/12/21 07:08:23;;;;;;;32.25;14.88;;;;;;;;;;5041296;28;20026;-77
2021/12/21 07:11:09;;;;;;;34.00;14.77;;;;;;;;;;5048209;28;20022;-79
2021/12/21 07:19:05;;;;;;;;;;;;;;;;;;5044204;28;20036;-78
2021/12/21 07:21:31;;;;;;;27.60;12.00;;;;;;;;;;5057433;28;19944;-76
2021/12/21 07:23:57;;;;;;;26.95;11.50;;;;;;;;;;5039338;28;20089;-77
2021/12/21 07:26:23;;;;;;;29.65;11.55;;;;;;;;;;5036488;28;20038;-78
2021/12/21 07:28:49;;;;;;;26.63;12.23;;;;;;;;;;5039844;28;20036;-78
2021/12/21 07:31:15;;;;;;;36.80;13.15;;;;;;;;;;5038036;28;20030;-78
2021/12/21 07:33:40;;;;;;;30.80;12.15;;;;;;;;;;5039706;28;20021;-76
2021/12/21 07:36:06;;;;;;;25.67;11.85;;;;;;;;;;5038117;28;20034;-77
2021/12/21 07:38:33;;;;;;;28.33;11.65;;;;;;;;;;5038453;28;20036;-78
2021/12/21 07:40:59;;;;;;;30.02;11.18;;;;;;;;;;5036959;28;20109;-76
2021/12/21 07:43:25;;;;;;;32.85;13.70;;;;;;;;;;5035771;28;20114;-77
2021/12/21 07:45:51;;;;;;;33.10;15.20;;;;;;;;;;5040180;28;20026;-77
2021/12/21 07:48:17;;;;;;;32.45;15.38;;;;;;;;;;5047118;28;20128;-76
2021/12/21 07:50:45;;;;;;;31.27;14.65;;;;;;;;;;5046557;28;20482;-76
2021/12/21 07:53:11;;;;;;;35.53;15.23;;;;;;;;;;5050543;28;20022;-78
2021/12/21 07:55:37;;;;;;;41.60;16.00;;;;;;;;;;5048201;28;20240;-78
2021/12/21 07:58:03;;;;;;;40.72;15.75;;;;;;;;;;5050324;28;20075;-77
2021/12/21 08:00:29;;;;;;;35.88;16.00;;;;;;;;;;5049410;28;20029;-77
2021/12/21 08:02:57;;;;;;;35.20;16.52;;;;;;;;;;5043863;28;20032;-77
2021/12/21 08:05:23;;;;;;;41.78;15.93;;;;;;;;;;5038336;28;20026;-77
2021/12/21 08:07:54;;;;;;;35.30;15.00;;;;;;;;;;5040229;28;20100;-78
2021/12/21 08:10:41;;;;;;;44.42;18.90;;;;;;;;;;5038087;28;20398;-78
2021/12/21 08:13:06;;;;;;;42.47;18.63;;;;;;;;;;5039983;28;20033;-76
2021/12/21 08:15:32;;;;;;;68.75;22.42;;;;;;;;;;5042282;28;20021;-77
2021/12/21 08:17:58;;;;;;;51.00;20.45;;;;;;;;;;5043617;28;20032;-78
2021/12/21 08:20:26;;;;;;;42.20;17.90;;;;;;;;;;5041416;28;20027;-78
2021/12/21 08:22:53;;;;;;;42.85;18.33;;;;;;;;;;5045725;28;20032;-78
2021/12/21 08:25:24;;;;;;;41.00;17.45;;;;;;;;;;5043784;28;20044;-78
2021/12/21 08:27:50;;;;;;;43.72;18.48;;;;;;;;;;5044469;28;20084;-78
2021/12/21 08:30:16;;;;;;;42.95;16.95;;;;;;;;;;5047637;28;20036;-78
2021/12/21 08:32:42;;;;;;;44.08;16.85;;;;;;;;;;5044456;28;20403;-77
2021/12/21 08:35:08;;;;;;;37.80;15.23;;;;;;;;;;5045574;28;20052;-81
2021/12/21 08:37:36;;;;;;;38.58;15.65;;;;;;;;;;5047873;28;20029;-78
2021/12/21 08:40:03;;;;;;;31.00;14.15;;;;;;;;;;5045396;28;20022;-81
2021/12/21 08:42:29;;;;;;;30.10;14.57;;;;;;;;;;5054531;28;20117;-79
2021/12/21 08:44:56;;;;;;;35.22;15.52;;;;;;;;;;5054783;28;20092;-80
2021/12/21 08:47:22;;;;;;;37.03;16.27;;;;;;;;;;5052697;28;20072;-80
2021/12/21 08:49:49;;;;;;;40.67;16.90;;;;;;;;;;5053926;28;20029;-80
2021/12/21 08:52:16;;;;;;;32.50;15.98;;;;;;;;;;5056880;28;20021;-80
2021/12/21 08:54:42;;;;;;;32.60;15.85;;;;;;;;;;5059431;28;20056;-81
2021/12/21 08:57:08;;;;;;;43.47;17.27;;;;;;;;;;5048610;28;20436;-80
2021/12/21 08:59:34;;;;;;;33.65;14.35;;;;;;;;;;5038205;28;20036;-79
2021/12/21 09:02:00;;;;;;;37.42;16.23;;;;;;;;;;5043677;28;20034;-79
2021/12/21 09:04:26;;;;;;;34.97;16.50;;;;;;;;;;5040374;28;20030;-79
2021/12/21 09:06:53;;;;;;;39.95;17.02;;;;;;;;;;5035520;28;20029;-77
2021/12/21 09:09:20;;;;;;;35.45;15.52;;;;;;;;;;5035862;28;20026;-76
2021/12/21 09:11:46;;;;;;;38.85;16.35;;;;;;;;;;5035338;28;20036;-77
2021/12/21 09:14:12;;;;;;;32.88;15.68;;;;;;;;;;5036441;28;20148;-77
2021/12/21 09:16:38;;;;;;;34.30;17.73;;;;;;;;;;5038700;28;20022;-77
2021/12/21 09:19:04;;;;;;;40.30;17.25;;;;;;;;;;5040248;28;20124;-78
2021/12/21 09:21:31;;;;;;;39.47;16.90;;;;;;;;;;5044366;28;20029;-79
2021/12/21 09:23:57;;;;;;;30.50;14.93;;;;;;;;;;5042495;28;20079;-77
2021/12/21 09:26:23;;;;;;;31.30;14.43;;;;;;;;;;5040351;28;20042;-76
2021/12/21 09:28:49;;;;;;;32.78;13.93;;;;;;;;;;5037388;28;20033;-76
2021/12/21 09:31:15;;;;;;;30.55;14.65;;;;;;;;;;5033788;28;20562;-74
2021/12/21 09:33:41;;;;;;;29.80;13.02;;;;;;;;;;5035274;28;20044;-76
2021/12/21 09:36:07;;;;;;;30.60;14.90;;;;;;;;;;5036066;28;20013;-78
2021/12/21 09:38:33;;;;;;;30.38;12.70;;;;;;;;;;5039596;28;20032;-79
2021/12/21 09:40:59;;;;;;;33.50;14.30;;;;;;;;;;5037573;28;20025;-78
2021/12/21 09:43:25;;;;;;;86.45;37.60;;;;;;;;;;5037270;28;20478;-78
2021/12/21 09:45:51;;;;;;;52.22;22.63;;;;;;;;;;5034251;28;20026;-79
2021/12/21 09:48:17;;;;;;;33.03;15.45;;;;;;;;;;5038490;28;20028;-78
2021/12/21 09:50:44;;;;;;;37.92;14.93;;;;;;;;;;5039088;28;20109;-80
2021/12/21 09:53:09;;;;;;;41.85;14.98;;;;;;;;;;5040211;28;20079;-76
2021/12/21 09:55:35;;;;;;;27.98;13.77;;;;;;;;;;5036454;28;20021;-75
2021/12/21 09:58:01;;;;;;;42.13;15.35;;;;;;;;;;5043694;28;20025;-75
2021/12/21 10:00:31;;;;;;;28.52;13.15;;;;;;;;;;5040148;28;20061;-78
2021/12/21 10:03:01;;;;;;;40.03;16.65;;;;;;;;;;5038587;28;20079;-77
2021/12/21 10:05:27;;;;;;;35.28;15.88;;;;;;;;;;5037339;28;20053;-78
2021/12/21 10:08:01;;;;;;;39.15;16.38;;;;;;;;;;5035760;28;20029;-77
2021/12/21 10:10:31;;;;;;;37.08;15.68;;;;;;;;;;5036538;28;20034;-78
2021/12/21 10:13:06;;;;;;;36.80;15.40;;;;;;;;;;5037897;28;20398;-79
2021/12/21 10:15:37;;;;;;;34.50;16.02;;;;;;;;;;5037416;28;20036;-77
2021/12/21 10:18:03;;;;;;;39.63;19.60;;;;;;;;;;5034356;28;20022;-78
2021/12/21 10:20:37;;;;;;;45.58;20.27;;;;;;;;;;5037154;28;20024;-77
2021/12/21 10:23:10;;;;;;;40.00;19.02;;;;;;;;;;5038609;28;20036;-78
2021/12/21 10:25:40;;;;;;;35.97;18.10;;;;;;;;;;5040508;28;20465;-78
2021/12/21 10:28:06;;;;;;;43.30;17.33;;;;;;;;;;5042067;28;20053;-81
2021/12/21 10:30:32;;;;;;;45.33;17.50;;;;;;;;;;5042339;28;20032;-79
2021/12/21 10:33:01;;;;;;;35.33;16.65;;;;;;;;;;5042041;28;20037;-79
2021/12/21 10:35:31;;;;;;;37.35;16.77;;;;;;;;;;5043484;28;20024;-79
2021/12/21 10:38:01;;;;;;;37.08;17.65;;;;;;;;;;5045282;28;20041;-77
2021/12/21 10:40:28;;;;;;;31.42;15.93;;;;;;;;;;5048145;28;20009;-77
2021/12/21 10:42:59;;;;;;;41.25;19.10;;;;;;;;;;5049286;28;20430;-79
2021/12/21 10:45:27;;;;;;;36.20;18.73;;;;;;;;;;5047288;28;20518;-79
2021/12/21 10:47:54;;;;;;;45.20;19.08;;;;;;;;;;5049627;28;20040;-79
2021/12/21 10:50:20;;;;;;;37.67;18.13;;;;;;;;;;5049010;28;20025;-80
2021/12/21 10:52:51;;;;;;;51.45;19.80;;;;;;;;;;5047506;28;20060;-79
2021/12/21 10:55:17;;;;;;;45.78;19.55;;;;;;;;;;5048760;28;20033;-78
2021/12/21 10:57:45;;;;;;;49.08;22.10;;;;;;;;;;5051373;28;20026;-78
2021/12/21 11:00:16;;;;;;;42.38;16.63;;;;;;;;;;5044235;28;20017;-80
2021/12/21 11:02:43;;;;;;;39.75;15.85;;;;;;;;;;5040860;28;20028;-79
2021/12/21 11:05:15;;;;;;;34.08;14.45;;;;;;;;;;5040124;28;20056;-78
2021/12/21 11:07:55;;;;;;;26.65;13.98;;;;;;;;;;5040977;28;20386;-79
2021/12/21 11:10:27;;;;;;;36.30;16.38;;;;;;;;;;5041602;28;20026;-79
2021/12/21 11:12:57;;;;;;;27.92;14.82;;;;;;;;;;5035319;28;20026;-79
2021/12/21 11:15:29;;;;;;;33.30;15.60;;;;;;;;;;5042332;28;20018;-76
2021/12/21 11:17:58;;;;;;;28.88;12.85;;;;;;;;;;5049675;28;20069;-77
2021/12/21 11:20:25;;;;;;;27.75;12.18;;;;;;;;;;5049188;28;20029;-81
2021/12/21 11:22:51;;;;;;;25.70;13.48;;;;;;;;;;5045217;28;20030;-76
2021/12/21 11:25:18;;;;;;;26.45;13.82;;;;;;;;;;5036676;28;20026;-75
2021/12/21 11:27:44;;;;;;;27.52;12.98;;;;;;;;;;5035395;28;20372;-78
2021/12/21 11:30:12;;;;;;;30.98;13.85;;;;;;;;;;5036248;28;20032;-78
2021/12/21 11:32:42;;;;;;;28.13;13.25;;;;;;;;;;5038451;28;20036;-78
2021/12/21 11:37:56;;;;;;;35.28;13.00;;;;;;;;;;5035463;28;20022;-78
2021/12/21 11:40:24;;;;;;;34.65;14.48;;;;;;;;;;5055737;28;20057;-76
2021/12/21 11:42:50;;;;;;;28.50;13.73;;;;;;;;;;5055869;28;20017;-77
2021/12/21 11:45:27;;;;;;;35.33;13.55;;;;;;;;;;5053738;28;20047;-75
2021/12/21 11:47:56;;;;;;;27.25;12.50;;;;;;;;;;5056107;28;20017;-77
2021/12/21 11:50:23;;;;;;;23.58;11.57;;;;;;;;;;5056267;28;20020;-75
2021/12/21 11:52:51;;;;;;;24.30;11.13;;;;;;;;;;5055989;28;20033;-77
2021/12/21 11:55:18;;;;;;;35.72;13.48;;;;;;;;;;5056348;28;20048;-76
2021/12/21 11:57:44;;;;;;;31.33;12.05;;;;;;;;;;5055028;28;20060;-76
2021/12/21 12:00:22;;;;;;;34.40;14.68;;;;;;;;;;5049484;28;20009;-79
2021/12/21 12:02:49;;;;;;;20.98;9.82;;;;;;;;;;5045633;28;20084;-78
2021/12/21 12:05:16;;;;;;;22.60;9.32;;;;;;;;;;5042160;28;20041;-77
2021/12/21 12:07:42;;;;;;;18.35;9.70;;;;;;;;;;5042129;28;20026;-77
2021/12/21 12:10:10;;;;;;;26.88;9.00;;;;;;;;;;5042384;28;20040;-76
2021/12/21 12:12:36;;;;;;;27.05;8.48;;;;;;;;;;5039780;28;20534;-77
2021/12/21 12:15:06;;;;;;;24.63;9.45;;;;;;;;;;5036502;28;20088;-76
2021/12/21 12:17:33;;;;;;;26.08;8.65;;;;;;;;;;5033968;28;20033;-77
2021/12/21 12:20:03;;;;;;;26.27;9.35;;;;;;;;;;5037318;28;20025;-77
2021/12/21 12:22:36;;;;;;;19.98;8.07;;;;;;;;;;5036986;28;20029;-78
2021/12/21 12:25:03;;;;;;;21.20;8.90;;;;;;;;;;5043666;28;20033;-76
2021/12/21 12:27:30;;;;;;;27.67;11.65;;;;;;;;;;5048382;28;20115;-76
2021/12/21 12:30:00;;;;;;;23.50;9.77;;;;;;;;;;5044682;28;20366;-78
2021/12/21 12:32:32;;;;;;;24.77;9.13;;;;;;;;;;5044577;28;20438;-78
2021/12/21 12:35:01;;;;;;;15.95;7.60;;;;;;;;;;5039653;28;20030;-78
2021/12/21 12:37:27;;;;;;;20.38;7.55;;;;;;;;;;5037900;28;20543;-76
2021/12/21 12:39:55;;;;;;;23.48;7.88;;;;;;;;;;5041886;28;20025;-78
2021/12/21 12:42:29;;;;;;;17.15;7.10;;;;;;;;;;5045591;28;20543;-77
2021/12/21 12:45:04;;;;;;;21.23;6.90;;;;;;;;;;5041738;28;20422;-78
2021/12/21 12:47:30;;;;;;;25.27;8.75;;;;;;;;;;5037837;28;20044;-79
2021/12/21 12:49:56;;;;;;;21.02;8.57;;;;;;;;;;5038994;28;20033;-77
2021/12/21 12:52:28;;;;;;;15.60;6.68;;;;;;;;;;5040993;28;20035;-78
2021/12/21 12:55:01;;;;;;;22.42;7.32;;;;;;;;;;5044520;28;20025;-77
2021/12/21 12:57:29;;;;;;;16.08;8.02;;;;;;;;;;5047434;28;20029;-77
2021/12/21 12:59:55;;;;;;;18.52;7.22;;;;;;;;;;5045249;28;20046;-80
2021/12/21 13:02:22;;;;;;;17.83;7.00;;;;;;;;;;5043603;28;20048;-78
2021/12/21 13:04:49;;;;;;;22.33;7.65;;;;;;;;;;5050403;28;20048;-78
2021/12/21 13:07:23;;;;;;;21.85;11.65;;;;;;;;;;5043740;28;20079;-79
2021/12/21 13:09:49;;;;;;;55.25;23.17;;;;;;;;;;5041266;28;20096;-78
2021/12/21 13:12:15;;;;;;;16.77;7.95;;;;;;;;;;5039854;28;20075;-77
2021/12/21 15:13:29;;;;;;;31.67;11.27;;;;;;;;;;5098387;28;20309;-78
2021/12/21 15:15:55;;;;;;;28.63;11.85;;;;;;;;;;5102180;28;20024;-79
2021/12/21 15:18:22;;;;;;;30.27;10.43;;;;;;;;;;5103360;28;20062;-78
2021/12/21 15:20:48;;;;;;;30.38;10.07;;;;;;;;;;5081929;28;20021;-77
2021/12/21 15:23:14;;;;;;;21.00;8.43;;;;;;;;;;5077863;28;20414;-77
2021/12/21 15:25:40;;;;;;;23.33;8.77;;;;;;;;;;5078996;28;20444;-77
2021/12/21 15:28:06;;;;;;;26.48;9.07;;;;;;;;;;5078020;28;20017;-78
2021/12/21 15:30:33;;;;;;;24.80;8.38;;;;;;;;;;5081013;28;20047;-79
2021/12/21 15:32:59;;;;;;;36.20;13.90;;;;;;;;;;5085605;28;20040;-77
2021/12/21 15:35:27;;;;;;;31.27;10.00;;;;;;;;;;5086522;28;20032;-78
2021/12/21 15:37:53;;;;;;;34.50;11.68;;;;;;;;;;5082345;28;20033;-78
2021/12/21 15:40:20;;;;;;;34.00;11.80;;;;;;;;;;5072854;28;20025;-80
2021/12/21 15:42:47;;;;;;;30.33;11.70;;;;;;;;;;5079487;28;20025;-79
2021/12/21 15:45:14;;;;;;;28.00;11.30;;;;;;;;;;5079273;28;20021;-78
2021/12/21 15:47:40;;;;;;;39.70;13.25;;;;;;;;;;5074590;28;20013;-78
2021/12/21 15:50:07;;;;;;;46.17;21.45;;;;;;;;;;5082985;28;20092;-79
2021/12/21 15:52:33;;;;;;;29.88;11.55;;;;;;;;;;5083419;28;20024;-81
2021/12/21 15:54:59;;;;;;;27.10;10.38;;;;;;;;;;5086329;28;20461;-80
2021/12/21 15:57:25;;;;;;;36.90;15.52;;;;;;;;;;5079646;28;20389;-77
2021/12/21 15:59:51;;;;;;;33.90;12.93;;;;;;;;;;5080909;28;20111;-80
2021/12/21 16:02:19;;;;;;;42.55;14.35;;;;;;;;;;5082724;28;20124;-79
2021/12/21 16:04:51;;;;;;;57.72;21.65;;;;;;;;;;5083846;28;20033;-78
2021/12/21 16:07:18;;;;;;;44.53;18.52;;;;;;;;;;5090048;28;20036;-78
2021/12/21 16:09:44;;;;;;;39.90;14.32;;;;;;;;;;5083309;28;20028;-78
2021/12/21 16:12:11;;;;;;;31.33;12.70;;;;;;;;;;5084254;28;20036;-78
2021/12/21 16:14:37;;;;;;;31.20;12.85;;;;;;;;;;5086614;28;20012;-77
2021/12/21 16:17:05;;;;;;;35.95;14.68;;;;;;;;;;5080675;28;20021;-78
2021/12/21 16:19:31;;;;;;;31.88;11.82;;;;;;;;;;5076875;28;20108;-78
2021/12/21 16:21:57;;;;;;;33.40;13.32;;;;;;;;;;5077271;28;20474;-79
2021/12/21 16:24:23;;;;;;;31.85;13.95;;;;;;;;;;5069210;28;20032;-77
2021/12/21 16:26:50;;;;;;;37.78;14.48;;;;;;;;;;5065580;28;20429;-78
2021/12/21 16:29:16;;;;;;;35.13;14.63;;;;;;;;;;5065676;28;20025;-79
2021/12/21 16:31:42;;;;;;;33.00;13.77;;;;;;;;;;5068056;28;20029;-78
2021/12/21 16:34:08;;;;;;;37.30;15.88;;;;;;;;;;5065728;28;20151;-79
2021/12/21 16:36:36;;;;;;;46.17;16.38;;;;;;;;;;5065328;28;20473;-78
2021/12/21 16:39:02;;;;;;;40.67;16.98;;;;;;;;;;5065323;28;20107;-78
2021/12/21 16:41:28;;;;;;;41.15;16.63;;;;;;;;;;5065704;28;20029;-78
2021/12/21 16:44:00;;;;;;;40.28;16.08;;;;;;;;;;5065516;28;20028;-79
2021/12/21 16:46:26;;;;;;;112.47;46.85;;;;;;;;;;5065662;28;20021;-79
2021/12/21 16:48:52;;;;;;;145.00;68.93;;;;;;;;;;5065233;28;20040;-78
2021/12/21 16:51:22;;;;;;;43.00;20.80;;;;;;;;;;5063591;28;20033;-78
2021/12/21 16:53:48;;;;;;;45.55;17.13;;;;;;;;;;5067286;28;20024;-81
2021/12/21 16:56:14;;;;;;;44.03;17.23;;;;;;;;;;5068066;28;20098;-78
2021/12/21 16:58:41;;;;;;;45.00;17.83;;;;;;;;;;5072253;28;20048;-79
2021/12/21 17:01:08;;;;;;;41.35;17.15;;;;;;;;;;5069074;28;20017;-78
2021/12/21 17:03:34;;;;;;;36.03;16.50;;;;;;;;;;5071330;28;20084;-78
2021/12/21 17:06:01;;;;;;;45.58;16.63;;;;;;;;;;5069056;28;20025;-78
2021/12/21 17:08:31;;;;;;;39.47;16.67;;;;;;;;;;5072995;28;20017;-79
2021/12/21 17:10:57;;;;;;;37.70;15.95;;;;;;;;;;5069670;28;20021;-78
2021/12/21 17:13:23;;;;;;;40.08;16.55;;;;;;;;;;5067525;28;20116;-79
2021/12/21 17:15:49;;;;;;;37.00;17.67;;;;;;;;;;5066932;28;20021;-77